Terminal Aerodrome Forecast
Issued by NWS Wakefield, VA

Home | Current Version | Previous Version | Text Only | Print | Product List | Glossary On
Versions: 1 2 3 4 5 6 7 8 9 10 11 12 13 14 15 16 17 18 19 20 21 22 23 24 25 26 27 28 29 30 31
016
FTUS41 KAKQ 221149 RRA
TAFECG
TAF
KECG 221149Z 2212/2312 27004KT 1/2SM FG VV002
     FM221400 26005KT 3SM BR OVC003
     FM221800 03005KT 5SM -SHRA OVC006
     FM230000 05008KT 4SM BR OVC005
     FM230500 08012G18KT 3SM RA BR OVC005=

USA.gov is the U.S. government's official web portal to all federal, state and local government web resources and services.